createdAt,value
2023-05-11T00:00:46.685Z,16.70
2023-05-11T00:03:14.903Z,16.60
2023-05-11T00:05:43.300Z,16.60
2023-05-11T00:08:11.387Z,16.60
2023-05-11T00:10:39.452Z,16.50
2023-05-11T00:13:08.854Z,16.50
2023-05-11T00:15:36.914Z,16.50
2023-05-11T00:18:05.077Z,16.40
2023-05-11T00:20:33.186Z,16.40
2023-05-11T00:23:01.258Z,16.30
2023-05-11T00:25:29.473Z,16.30
2023-05-11T00:27:57.577Z,16.30
2023-05-11T00:30:27.025Z,16.30
2023-05-11T00:32:55.124Z,16.30
2023-05-11T00:35:23.358Z,16.20
2023-05-11T00:37:51.482Z,16.20
2023-05-11T00:40:19.725Z,16.10
2023-05-11T00:42:47.966Z,16.10
2023-05-11T00:45:16.030Z,16.10
2023-05-11T00:47:45.496Z,16.10
2023-05-11T00:50:13.710Z,16.00
2023-05-11T00:52:42.796Z,16.00
2023-05-11T00:55:12.440Z,16.00
2023-05-11T00:57:40.758Z,16.00
2023-05-11T01:00:10.359Z,15.90
2023-05-11T01:02:38.851Z,15.90
2023-05-11T01:05:09.506Z,15.90
2023-05-11T01:07:43.948Z,15.90
2023-05-11T01:10:20.773Z,15.90
2023-05-11T01:12:57.995Z,15.80
2023-05-11T01:15:31.268Z,15.80
2023-05-11T01:18:06.676Z,15.80
2023-05-11T01:20:36.848Z,15.80
2023-05-11T01:23:26.032Z,15.70
2023-05-11T01:26:12.562Z,15.70
2023-05-11T01:28:59.546Z,15.70
2023-05-11T01:31:32.134Z,15.70
2023-05-11T01:34:05.040Z,15.70
2023-05-11T01:36:37.037Z,15.70
2023-05-11T01:39:08.932Z,15.70
2023-05-11T01:41:38.810Z,15.70
2023-05-11T01:44:10.697Z,15.70
2023-05-11T01:46:40.396Z,15.70
2023-05-11T01:49:09.160Z,15.70
2023-05-11T01:51:39.462Z,15.70
2023-05-11T01:54:09.697Z,15.70
2023-05-11T01:56:44.479Z,15.70
2023-05-11T01:59:14.257Z,15.60
2023-05-11T02:01:44.249Z,15.60
2023-05-11T02:04:13.935Z,15.60
2023-05-11T02:06:43.920Z,15.60
2023-05-11T02:09:13.676Z,15.60
2023-05-11T02:11:43.494Z,15.60
2023-05-11T02:14:12.793Z,15.60
2023-05-11T02:16:41.511Z,15.60
2023-05-11T02:19:11.677Z,15.60
2023-05-11T02:21:40.833Z,15.70
2023-05-11T02:24:09.653Z,15.70
2023-05-11T02:26:38.596Z,15.70
2023-05-11T02:29:06.681Z,15.70
2023-05-11T02:31:41.398Z,15.70
2023-05-11T02:34:20.853Z,15.70
2023-05-11T02:36:50.495Z,15.70
2023-05-11T02:39:22.775Z,15.70
2023-05-11T02:41:57.730Z,15.70
2023-05-11T02:44:32.630Z,15.70
2023-05-11T02:47:04.570Z,15.70
2023-05-11T02:49:37.181Z,15.70
2023-05-11T02:52:06.438Z,15.80
2023-05-11T02:54:35.465Z,15.70
2023-05-11T02:57:04.887Z,15.70
2023-05-11T02:59:33.396Z,15.70
2023-05-11T03:02:01.950Z,15.70
2023-05-11T03:04:30.370Z,15.70
2023-05-11T03:06:59.799Z,15.70
2023-05-11T03:09:27.937Z,15.70
2023-05-11T03:11:56.171Z,15.70
2023-05-11T03:14:24.478Z,15.70
2023-05-11T03:16:53.483Z,15.60
2023-05-11T03:19:21.697Z,15.60
2023-05-11T03:21:52.232Z,15.60
2023-05-11T03:24:22.456Z,15.60
2023-05-11T03:26:52.341Z,15.60
2023-05-11T03:29:21.277Z,15.60
2023-05-11T03:31:51.211Z,15.50
2023-05-11T03:34:19.593Z,15.50
2023-05-11T03:36:50.233Z,15.50
2023-05-11T03:39:18.788Z,15.50
2023-05-11T03:41:51.459Z,15.50
2023-05-11T03:44:21.283Z,15.40
2023-05-11T03:46:51.344Z,15.40
2023-05-11T03:49:21.092Z,15.40
2023-05-11T03:51:49.636Z,15.40
2023-05-11T03:54:17.891Z,15.40
2023-05-11T03:56:47.348Z,15.40
2023-05-11T03:59:17.380Z,15.40
2023-05-11T04:01:45.975Z,15.40
2023-05-11T04:04:14.121Z,15.40
2023-05-11T04:06:42.242Z,15.40
2023-05-11T04:09:10.314Z,15.50
2023-05-11T04:11:38.700Z,15.50
2023-05-11T04:14:08.171Z,15.50
2023-05-11T04:16:36.354Z,15.50
2023-05-11T04:19:04.465Z,15.50
2023-05-11T04:21:32.662Z,15.50
2023-05-11T04:24:00.882Z,15.50
2023-05-11T04:26:29.094Z,15.60
2023-05-11T04:28:57.145Z,15.60
2023-05-11T04:31:26.614Z,15.60
2023-05-11T04:33:54.656Z,15.60
2023-05-11T04:36:23.374Z,15.60
2023-05-11T04:38:53.085Z,15.60
2023-05-11T04:41:22.338Z,15.60
2023-05-11T04:43:50.435Z,15.60
2023-05-11T04:46:18.773Z,15.60
2023-05-11T04:48:48.242Z,15.60
2023-05-11T04:51:17.349Z,15.60
2023-05-11T04:53:45.369Z,15.60
2023-05-11T04:56:13.419Z,15.60
2023-05-11T04:58:41.445Z,15.60
2023-05-11T05:01:09.777Z,15.60
2023-05-11T05:03:37.925Z,15.60
2023-05-11T05:06:07.610Z,15.60
2023-05-11T05:08:35.653Z,15.60
2023-05-11T05:11:03.737Z,15.60
2023-05-11T05:13:31.766Z,15.60
2023-05-11T05:16:00.008Z,15.60
2023-05-11T05:18:28.948Z,15.70
2023-05-11T05:20:57.060Z,15.70
2023-05-11T05:23:26.623Z,15.70
2023-05-11T05:25:54.899Z,15.70
2023-05-11T05:28:22.932Z,15.80
2023-05-11T05:30:51.082Z,15.80
2023-05-11T05:33:19.151Z,15.80
2023-05-11T05:35:47.778Z,15.80
2023-05-11T05:38:15.831Z,15.80
2023-05-11T05:40:45.307Z,15.80
2023-05-11T05:43:13.398Z,15.90
2023-05-11T05:45:41.445Z,15.90
2023-05-11T05:48:10.073Z,15.90
2023-05-11T05:50:38.732Z,15.90
2023-05-11T05:53:07.457Z,16.00
2023-05-11T05:55:35.508Z,16.00
2023-05-11T05:58:04.922Z,16.00
2023-05-11T06:00:33.000Z,16.00
2023-05-11T06:03:01.241Z,16.00
2023-05-11T06:05:29.349Z,16.00
2023-05-11T06:08:09.300Z,16.10
2023-05-11T06:10:38.745Z,16.10
2023-05-11T06:13:09.236Z,16.10
2023-05-11T06:15:37.321Z,16.10
2023-05-11T06:18:05.643Z,16.10
2023-05-11T06:20:33.746Z,16.20
2023-05-11T06:23:01.787Z,16.20
2023-05-11T06:25:29.856Z,16.20
2023-05-11T06:27:57.883Z,16.20
2023-05-11T06:30:27.331Z,16.20
2023-05-11T06:32:55.415Z,16.20
2023-05-11T06:35:23.582Z,16.30
2023-05-11T06:37:51.692Z,16.30
2023-05-11T06:40:20.090Z,16.30
2023-05-11T06:42:48.361Z,16.30
2023-05-11T06:45:16.518Z,16.30
2023-05-11T06:47:46.096Z,16.30
2023-05-11T06:50:14.111Z,16.30
2023-05-11T06:52:42.183Z,16.30
2023-05-11T06:55:14.367Z,16.30
2023-05-11T06:57:42.423Z,16.30
2023-05-11T07:00:11.641Z,16.30
2023-05-11T07:02:39.737Z,16.30
2023-05-11T07:05:09.709Z,16.30
2023-05-11T07:07:37.842Z,16.30
2023-05-11T07:10:06.751Z,16.30
2023-05-11T07:12:34.849Z,16.40
2023-05-11T07:15:02.899Z,16.40
2023-05-11T07:17:31.015Z,16.40
2023-05-11T07:19:59.060Z,16.50
2023-05-11T07:22:28.481Z,16.50
2023-05-11T07:24:56.541Z,16.50
2023-05-11T07:27:24.560Z,16.60
2023-05-11T07:29:52.663Z,16.60
2023-05-11T07:32:20.759Z,16.60
2023-05-11T07:34:48.846Z,16.60
2023-05-11T07:37:16.902Z,16.70
2023-05-11T07:39:46.347Z,16.70
2023-05-11T07:42:14.397Z,16.70
2023-05-11T07:44:42.420Z,16.70
2023-05-11T07:47:10.522Z,16.80
2023-05-11T07:49:43.473Z,16.80
2023-05-11T07:52:12.675Z,16.80
2023-05-11T07:54:40.930Z,16.80
2023-05-11T07:57:13.797Z,16.90
2023-05-11T07:59:41.991Z,16.90
2023-05-11T08:02:12.916Z,16.90
2023-05-11T08:04:41.400Z,16.90
2023-05-11T08:07:09.621Z,16.90
2023-05-11T08:09:37.977Z,16.90
2023-05-11T08:12:06.315Z,16.90
2023-05-11T08:14:37.702Z,16.90
2023-05-11T08:17:06.314Z,17.00
2023-05-11T08:19:34.399Z,17.00
2023-05-11T08:22:02.708Z,17.00
2023-05-11T08:24:30.744Z,17.00
2023-05-11T08:26:58.777Z,17.10
2023-05-11T08:29:27.454Z,17.10
2023-05-11T08:31:57.032Z,17.20
2023-05-11T08:34:25.278Z,17.20
2023-05-11T08:36:55.151Z,17.30
2023-05-11T08:39:38.890Z,17.30
2023-05-11T08:42:13.846Z,17.40
2023-05-11T08:44:44.288Z,17.40
2023-05-11T08:49:45.926Z,17.50
2023-05-11T08:52:17.900Z,17.60
2023-05-11T08:54:46.726Z,17.60
2023-05-11T08:57:15.440Z,17.60
2023-05-11T08:59:46.891Z,17.70
2023-05-11T09:02:19.078Z,17.80
2023-05-11T09:04:49.166Z,17.80
2023-05-11T09:07:18.704Z,17.90
2023-05-11T09:09:47.221Z,17.90
2023-05-11T09:12:15.554Z,18.00
2023-05-11T09:14:43.979Z,18.00
2023-05-11T09:17:12.302Z,18.00
2023-05-11T09:19:58.962Z,18.00
2023-05-11T09:22:29.865Z,18.00
2023-05-11T09:24:59.095Z,18.00
2023-05-11T09:27:27.182Z,18.00
2023-05-11T09:29:55.762Z,18.00
2023-05-11T09:32:23.967Z,18.10
2023-05-11T09:34:53.541Z,18.10
2023-05-11T09:37:21.687Z,18.10
2023-05-11T09:40:14.212Z,18.20
2023-05-11T09:42:44.253Z,18.20
2023-05-11T09:45:12.513Z,18.20
2023-05-11T09:47:41.598Z,18.30
2023-05-11T09:52:54.088Z,18.30
2023-05-11T09:55:22.212Z,18.30
2023-05-11T09:57:56.162Z,18.40
2023-05-11T10:00:25.984Z,18.40
2023-05-11T10:03:07.759Z,18.50
2023-05-11T10:05:38.517Z,18.60
2023-05-11T10:08:07.482Z,18.60
2023-05-11T10:10:36.373Z,18.70
2023-05-11T10:13:04.627Z,18.80
2023-05-11T10:15:36.621Z,18.90
2023-05-11T10:18:05.198Z,18.90
2023-05-11T10:20:34.670Z,19.10
2023-05-11T10:23:04.879Z,19.10
2023-05-11T10:25:35.086Z,19.20
2023-05-11T10:28:04.001Z,19.30
2023-05-11T10:30:34.399Z,19.40
2023-05-11T10:33:02.838Z,19.50
2023-05-11T10:35:31.799Z,19.70
2023-05-11T10:37:59.889Z,19.80
2023-05-11T10:40:29.910Z,19.90
2023-05-11T10:43:23.851Z,19.90
2023-05-11T10:45:57.981Z,20.10
2023-05-11T10:48:48.869Z,20.20
2023-05-11T10:51:34.463Z,20.30
2023-05-11T10:54:15.533Z,20.30
2023-05-11T10:57:01.764Z,20.40
2023-05-11T11:00:08.997Z,20.40
2023-05-11T11:02:37.782Z,20.40
2023-05-11T11:05:10.526Z,20.50
2023-05-11T11:08:00.057Z,20.40
2023-05-11T11:10:32.807Z,20.40
2023-05-11T11:13:07.616Z,20.40
2023-05-11T11:16:09.522Z,20.40
2023-05-11T11:18:37.735Z,20.40
2023-05-11T11:21:05.900Z,20.30
2023-05-11T11:23:49.635Z,20.30
2023-05-11T11:26:21.015Z,20.30
2023-05-11T11:29:12.818Z,20.20
2023-05-11T11:31:42.120Z,20.20
2023-05-11T11:34:37.471Z,20.10
2023-05-11T11:37:06.696Z,20.00
2023-05-11T11:40:08.898Z,20.00
2023-05-11T11:42:44.168Z,19.90
2023-05-11T11:45:33.532Z,19.80
2023-05-11T11:48:15.988Z,19.70
2023-05-11T11:50:46.961Z,19.60
2023-05-11T11:54:07.834Z,19.60
2023-05-11T11:56:42.318Z,19.50
2023-05-11T11:59:13.931Z,19.50
2023-05-11T12:01:45.237Z,19.50
2023-05-11T12:04:44.088Z,19.40
2023-05-11T12:07:13.785Z,19.40
2023-05-11T12:09:44.721Z,19.40
2023-05-11T12:12:13.150Z,19.40
2023-05-11T12:14:48.752Z,19.30
2023-05-11T12:17:25.893Z,19.30
2023-05-11T12:19:54.002Z,19.20
2023-05-11T12:22:26.424Z,19.20
2023-05-11T12:25:00.306Z,19.10
2023-05-11T12:27:28.735Z,19.10
2023-05-11T12:29:57.358Z,19.10
2023-05-11T12:32:31.404Z,19.00
2023-05-11T12:35:01.113Z,19.00
2023-05-11T12:37:30.096Z,19.00
2023-05-11T12:39:58.957Z,19.00
2023-05-11T12:42:28.806Z,18.90
2023-05-11T12:44:57.220Z,18.90
2023-05-11T12:47:25.533Z,18.90
2023-05-11T12:49:55.049Z,18.80
2023-05-11T12:52:25.948Z,18.80
2023-05-11T12:55:00.151Z,18.80
2023-05-11T12:57:29.831Z,18.80
2023-05-11T13:00:10.065Z,18.80
2023-05-11T13:02:46.146Z,18.80
2023-05-11T13:05:16.833Z,18.80
2023-05-11T13:07:45.905Z,18.80
2023-05-11T13:10:14.665Z,18.80
2023-05-11T13:12:51.659Z,18.80
2023-05-11T13:15:21.796Z,18.90
2023-05-11T13:17:56.890Z,18.90
2023-05-11T13:20:28.584Z,18.90
2023-05-11T13:23:07.092Z,18.90
2023-05-11T13:25:35.998Z,18.90
2023-05-11T13:28:04.247Z,18.90
2023-05-11T13:30:34.719Z,19.00
2023-05-11T13:33:03.444Z,19.00
2023-05-11T13:35:32.883Z,19.00
2023-05-11T13:38:01.100Z,19.00
2023-05-11T13:40:29.313Z,19.00
2023-05-11T13:42:57.769Z,18.90
2023-05-11T13:45:25.837Z,18.90
2023-05-11T13:47:55.217Z,18.80
2023-05-11T13:50:23.705Z,18.70
2023-05-11T13:52:53.557Z,18.60
2023-05-11T13:55:22.176Z,18.60
2023-05-11T13:57:50.395Z,18.50
2023-05-11T14:00:19.442Z,18.40
2023-05-11T14:02:49.689Z,18.30
2023-05-11T14:05:18.792Z,18.30
2023-05-11T14:07:49.020Z,18.20
2023-05-11T14:10:18.859Z,18.20
2023-05-11T14:12:47.021Z,18.10
2023-05-11T14:15:15.083Z,18.10
2023-05-11T14:17:43.521Z,18.10
2023-05-11T14:20:13.152Z,18.00
2023-05-11T14:22:41.590Z,18.00
2023-05-11T14:25:10.257Z,18.00
2023-05-11T14:27:39.754Z,18.00
2023-05-11T14:30:09.146Z,18.00
2023-05-11T14:32:37.322Z,18.00
2023-05-11T14:35:05.853Z,18.00
2023-05-11T14:37:34.119Z,18.00
2023-05-11T14:40:02.165Z,17.90
2023-05-11T14:42:30.526Z,17.90
2023-05-11T14:45:00.056Z,17.90
2023-05-11T14:47:28.181Z,17.90
2023-05-11T14:49:56.520Z,17.90
2023-05-11T14:52:24.563Z,17.90
2023-05-11T14:54:52.814Z,18.00
2023-05-11T14:57:20.990Z,17.90
2023-05-11T14:59:58.994Z,17.90
2023-05-11T15:02:30.398Z,17.90
2023-05-11T15:04:58.501Z,17.90
2023-05-11T15:07:26.844Z,17.90
2023-05-11T15:09:55.102Z,17.90
2023-05-11T15:12:23.129Z,17.90
2023-05-11T15:14:51.245Z,17.90
2023-05-11T15:17:19.300Z,17.90
2023-05-11T15:19:48.758Z,17.80
2023-05-11T15:22:17.666Z,17.80
2023-05-11T15:24:45.808Z,17.80
2023-05-11T15:27:13.936Z,17.80
2023-05-11T15:29:42.002Z,17.80
2023-05-11T15:32:13.574Z,17.80
2023-05-11T15:34:55.524Z,17.80
2023-05-11T15:37:29.174Z,17.80
2023-05-11T15:39:57.291Z,17.80
2023-05-11T15:42:25.445Z,17.80
2023-05-11T15:44:53.633Z,17.90
2023-05-11T15:47:21.875Z,17.90
2023-05-11T15:49:50.212Z,17.90
2023-05-11T15:52:18.362Z,17.90
2023-05-11T15:54:47.939Z,17.90
2023-05-11T15:57:16.319Z,18.00
2023-05-11T15:59:44.478Z,18.00
2023-05-11T16:02:12.559Z,18.00
2023-05-11T16:04:40.622Z,18.00
2023-05-11T16:07:08.684Z,18.00
2023-05-11T16:09:37.133Z,18.00
2023-05-11T16:12:07.287Z,18.00
2023-05-11T16:14:35.364Z,18.00
2023-05-11T16:17:03.578Z,18.00
2023-05-11T16:19:34.432Z,18.00
2023-05-11T16:22:02.504Z,18.00
2023-05-11T16:24:34.349Z,18.00
2023-05-11T16:27:02.995Z,18.00
2023-05-11T16:29:32.453Z,18.00
2023-05-11T16:32:00.819Z,18.00
2023-05-11T16:34:29.023Z,18.00
2023-05-11T16:36:58.909Z,18.00
2023-05-11T16:39:27.646Z,17.90
2023-05-11T16:41:55.733Z,18.00
2023-05-11T16:44:24.074Z,18.00
2023-05-11T16:46:53.592Z,17.90
2023-05-11T16:49:21.675Z,17.90
2023-05-11T16:51:49.804Z,17.90
2023-05-11T16:54:17.875Z,17.90
2023-05-11T16:56:45.922Z,17.90
2023-05-11T16:59:14.192Z,17.90
2023-05-11T17:01:42.388Z,17.80
2023-05-11T17:04:12.101Z,17.80
2023-05-11T17:06:40.390Z,17.80
2023-05-11T17:09:08.470Z,17.80
2023-05-11T17:11:36.866Z,17.80
2023-05-11T17:14:04.924Z,17.80
2023-05-11T17:16:33.226Z,17.80
2023-05-11T17:19:01.343Z,17.80
2023-05-11T17:21:30.874Z,17.70
2023-05-11T17:23:59.108Z,17.70
2023-05-11T17:26:35.770Z,17.70
2023-05-11T17:29:11.985Z,17.60
2023-05-11T17:31:40.212Z,17.60
2023-05-11T17:34:09.274Z,17.60
2023-05-11T17:36:39.076Z,17.60
2023-05-11T17:39:08.112Z,17.60
2023-05-11T17:41:36.327Z,17.50
2023-05-11T17:44:04.414Z,17.50
2023-05-11T17:46:32.620Z,17.50
2023-05-11T17:49:01.319Z,17.40
2023-05-11T17:51:29.446Z,17.40
2023-05-11T17:53:58.929Z,17.40
2023-05-11T17:56:27.034Z,17.40
2023-05-11T17:58:55.318Z,17.30
2023-05-11T18:01:23.486Z,17.30
2023-05-11T18:03:51.814Z,17.30
2023-05-11T18:06:19.942Z,17.30
2023-05-11T18:08:48.664Z,17.30
2023-05-11T18:11:18.085Z,17.20
2023-05-11T18:13:46.270Z,17.20
2023-05-11T18:16:14.377Z,17.20
2023-05-11T18:18:43.254Z,17.20
2023-05-11T18:21:11.682Z,17.20
2023-05-11T18:23:39.790Z,17.20
2023-05-11T18:26:08.255Z,17.20
2023-05-11T18:28:37.669Z,17.10
2023-05-11T18:31:05.754Z,17.10
2023-05-11T18:33:33.848Z,17.10
2023-05-11T18:36:03.914Z,17.10
2023-05-11T18:38:32.185Z,17.10
2023-05-11T18:41:04.343Z,17.10
2023-05-11T18:43:32.663Z,17.10
2023-05-11T18:46:02.088Z,17.10
2023-05-11T18:48:30.123Z,17.10
2023-05-11T18:50:58.230Z,17.00
2023-05-11T18:53:26.666Z,17.00
2023-05-11T18:55:54.918Z,17.00
2023-05-11T18:58:23.586Z,17.00
2023-05-11T19:00:52.332Z,16.90
2023-05-11T19:03:22.979Z,17.00
2023-05-11T19:05:51.786Z,17.00
2023-05-11T19:08:19.860Z,16.90
2023-05-11T19:10:49.413Z,17.00
2023-05-11T19:13:17.516Z,16.90
2023-05-11T19:15:50.011Z,16.90
2023-05-11T19:18:20.597Z,16.90
2023-05-11T19:20:51.238Z,16.90
2023-05-11T19:23:22.504Z,16.90
2023-05-11T19:25:52.093Z,16.90
2023-05-11T19:28:21.661Z,16.90
2023-05-11T19:30:50.261Z,16.90
2023-05-11T19:33:21.169Z,16.90
2023-05-11T19:35:52.778Z,16.90
2023-05-11T19:38:26.624Z,16.90
2023-05-11T19:40:56.876Z,16.80
2023-05-11T19:43:30.451Z,16.80
2023-05-11T19:46:05.023Z,16.80
2023-05-11T19:48:35.392Z,16.80
2023-05-11T19:51:08.326Z,16.80
2023-05-11T19:53:37.817Z,16.80
2023-05-11T19:56:07.231Z,16.80
2023-05-11T19:58:38.405Z,16.80
2023-05-11T20:01:08.700Z,16.80
2023-05-11T20:03:49.284Z,16.80
2023-05-11T20:06:19.914Z,16.70
2023-05-11T20:08:51.951Z,16.80
2023-05-11T20:11:25.483Z,16.70
2023-05-11T20:13:59.685Z,16.70
2023-05-11T20:16:33.262Z,16.70
2023-05-11T20:19:05.076Z,16.70
2023-05-11T20:21:37.094Z,16.70
2023-05-11T20:24:10.633Z,16.70
2023-05-11T20:26:40.410Z,16.70
2023-05-11T20:29:11.261Z,16.70
2023-05-11T20:31:40.416Z,16.70
2023-05-11T20:34:10.209Z,16.70
2023-05-11T20:36:40.804Z,16.70
2023-05-11T20:39:11.624Z,16.70
2023-05-11T20:41:42.032Z,16.70
2023-05-11T20:44:13.908Z,16.70
2023-05-11T20:46:46.406Z,16.70
2023-05-11T20:49:22.160Z,16.70
2023-05-11T20:51:55.160Z,16.70
2023-05-11T20:54:24.113Z,16.70
2023-05-11T20:56:53.721Z,16.70
2023-05-11T21:01:53.635Z,16.70
2023-05-11T21:04:21.797Z,16.60
2023-05-11T21:06:49.835Z,16.60
2023-05-11T21:09:19.325Z,16.60
2023-05-11T21:11:48.343Z,16.60
2023-05-11T21:14:16.834Z,16.60
2023-05-11T21:16:44.912Z,16.60
2023-05-11T21:19:13.001Z,16.60
2023-05-11T21:21:41.032Z,16.60
2023-05-11T21:24:09.237Z,16.60
2023-05-11T21:26:38.645Z,16.60
2023-05-11T21:29:06.675Z,16.60
2023-05-11T21:31:34.692Z,16.60
2023-05-11T21:34:02.748Z,16.60
2023-05-11T21:36:30.969Z,16.60
2023-05-11T21:38:58.988Z,16.60
2023-05-11T21:41:27.933Z,16.60
2023-05-11T21:43:57.334Z,16.60
2023-05-11T21:46:25.427Z,16.60
2023-05-11T21:48:53.496Z,16.60
2023-05-11T21:51:21.585Z,16.60
2023-05-11T21:53:49.650Z,16.60
2023-05-11T21:56:17.711Z,16.60
2023-05-11T21:58:45.742Z,16.60
2023-05-11T22:01:15.252Z,16.60
2023-05-11T22:03:43.532Z,16.50
2023-05-11T22:06:11.692Z,16.50
2023-05-11T22:08:39.729Z,16.50
2023-05-11T22:11:07.876Z,16.50
2023-05-11T22:13:35.913Z,16.50
2023-05-11T22:16:04.344Z,16.50
2023-05-11T22:18:33.801Z,16.50
2023-05-11T22:21:02.734Z,16.50
2023-05-11T22:23:31.168Z,16.50
2023-05-11T22:25:59.227Z,16.50
2023-05-11T22:28:27.363Z,16.50
2023-05-11T22:30:55.393Z,16.40
2023-05-11T22:33:23.406Z,16.50
2023-05-11T22:35:52.897Z,16.50
2023-05-11T22:38:20.928Z,16.50
2023-05-11T22:40:49.356Z,16.40
2023-05-11T22:43:17.718Z,16.40
2023-05-11T22:45:45.881Z,16.40
2023-05-11T22:48:13.987Z,16.40
2023-05-11T22:50:46.554Z,16.30
2023-05-11T22:53:16.276Z,16.30
2023-05-11T22:55:44.328Z,16.30
2023-05-11T22:58:12.418Z,16.20
2023-05-11T23:00:40.637Z,16.20
2023-05-11T23:03:08.787Z,16.20
2023-05-11T23:05:37.205Z,16.20
2023-05-11T23:08:05.283Z,16.10
2023-05-11T23:10:34.696Z,16.10
2023-05-11T23:13:04.836Z,16.10
2023-05-11T23:15:33.056Z,16.10
2023-05-11T23:18:01.224Z,16.00
2023-05-11T23:20:29.305Z,16.00
2023-05-11T23:22:57.325Z,16.00
2023-05-11T23:25:25.973Z,15.90
2023-05-11T23:27:55.736Z,15.90
2023-05-11T23:30:24.244Z,15.90
2023-05-11T23:32:52.377Z,15.90
2023-05-11T23:35:20.449Z,15.80
2023-05-11T23:37:48.488Z,15.80
2023-05-11T23:40:16.643Z,15.80
2023-05-11T23:42:44.721Z,15.80
2023-05-11T23:45:14.406Z,15.70
2023-05-11T23:47:42.739Z,15.70
2023-05-11T23:50:11.348Z,15.70
2023-05-11T23:52:39.441Z,15.70
2023-05-11T23:55:09.132Z,15.70
2023-05-11T23:57:37.366Z,15.60
